createdAt,value
2017-08-06T00:00:14.804Z,0
2017-08-06T00:01:16.974Z,0
2017-08-06T00:02:19.482Z,0
2017-08-06T00:03:21.772Z,0
2017-08-06T00:04:24.194Z,0
2017-08-06T00:05:26.627Z,0
2017-08-06T00:06:28.968Z,0
2017-08-06T00:07:31.206Z,0
2017-08-06T00:08:45.952Z,0
2017-08-06T00:09:48.342Z,0
2017-08-06T00:10:50.691Z,0
2017-08-06T00:11:52.983Z,0
2017-08-06T00:12:55.303Z,0
2017-08-06T00:13:57.577Z,0
2017-08-06T00:14:59.917Z,0
2017-08-06T00:16:02.209Z,0
2017-08-06T00:17:04.647Z,0
2017-08-06T00:18:19.426Z,0
2017-08-06T00:19:21.806Z,0
2017-08-06T00:20:24.314Z,0
2017-08-06T00:21:26.659Z,0
2017-08-06T00:22:28.908Z,0
2017-08-06T00:23:31.181Z,0
2017-08-06T00:24:33.613Z,0
2017-08-06T00:25:36.005Z,0
2017-08-06T00:26:38.305Z,0
2017-08-06T00:27:53.009Z,0
2017-08-06T00:28:55.315Z,0
2017-08-06T00:29:57.711Z,0
2017-08-06T00:31:01.063Z,0
2017-08-06T00:32:03.393Z,0
2017-08-06T00:33:05.765Z,0
2017-08-06T00:34:08.259Z,0
2017-08-06T00:35:10.505Z,0
2017-08-06T00:36:12.891Z,0
2017-08-06T00:37:27.475Z,0
2017-08-06T00:38:29.746Z,0
2017-08-06T00:39:32.091Z,0
2017-08-06T00:40:34.479Z,0
2017-08-06T00:41:36.921Z,0
2017-08-06T00:42:39.005Z,0
2017-08-06T00:43:41.310Z,0
2017-08-06T00:44:43.814Z,0
2017-08-06T00:45:46.227Z,0
2017-08-06T00:47:00.934Z,0
2017-08-06T00:48:03.315Z,0
2017-08-06T00:49:05.682Z,0
2017-08-06T00:50:08.137Z,0
2017-08-06T00:51:10.565Z,0
2017-08-06T00:52:12.811Z,0
2017-08-06T00:53:15.143Z,0
2017-08-06T00:54:17.538Z,0
2017-08-06T00:55:19.891Z,0
2017-08-06T00:56:34.607Z,0
2017-08-06T00:57:37.013Z,0
2017-08-06T00:58:39.443Z,0
2017-08-06T00:59:41.933Z,0
2017-08-06T01:00:44.269Z,0
2017-08-06T01:01:46.673Z,0
2017-08-06T01:02:49.013Z,0
2017-08-06T01:03:51.523Z,0
2017-08-06T01:04:53.851Z,0
2017-08-06T01:06:08.795Z,0
2017-08-06T01:07:11.133Z,0
2017-08-06T01:08:13.584Z,0
2017-08-06T01:09:15.901Z,0
2017-08-06T01:10:18.238Z,0
2017-08-06T01:11:20.295Z,0
2017-08-06T01:12:22.586Z,0
2017-08-06T01:13:24.878Z,0
2017-08-06T01:14:27.200Z,0
2017-08-06T01:15:41.826Z,0
2017-08-06T01:16:44.190Z,0
2017-08-06T01:17:46.566Z,0
2017-08-06T01:18:48.982Z,0
2017-08-06T01:19:51.301Z,0
2017-08-06T01:20:53.688Z,0
2017-08-06T01:21:56.142Z,0
2017-08-06T01:22:58.620Z,0
2017-08-06T01:24:00.733Z,0
2017-08-06T01:25:15.430Z,0
2017-08-06T01:26:17.953Z,0
2017-08-06T01:27:20.411Z,0
2017-08-06T01:28:22.724Z,0
2017-08-06T01:29:25.041Z,0
2017-08-06T01:30:27.373Z,0
2017-08-06T01:31:29.820Z,0
2017-08-06T01:32:32.166Z,0
2017-08-06T01:33:34.521Z,0
2017-08-06T01:34:49.305Z,0
2017-08-06T01:35:51.702Z,0
2017-08-06T01:36:54.105Z,0
2017-08-06T01:37:56.645Z,0
2017-08-06T01:38:58.932Z,0
2017-08-06T01:40:01.293Z,0
2017-08-06T01:41:03.801Z,0
2017-08-06T01:42:06.077Z,0
2017-08-06T01:43:08.633Z,0
2017-08-06T01:44:23.242Z,0
2017-08-06T01:45:25.725Z,0
2017-08-06T01:46:28.121Z,0
2017-08-06T01:47:30.373Z,0
2017-08-06T01:48:32.653Z,0
2017-08-06T01:49:35.049Z,0
2017-08-06T01:50:37.532Z,0
2017-08-06T01:51:39.980Z,0
2017-08-06T01:52:42.604Z,0
2017-08-06T01:54:02.918Z,0
2017-08-06T01:55:05.154Z,0
2017-08-06T01:56:07.416Z,0
2017-08-06T01:57:09.722Z,0
2017-08-06T01:58:12.075Z,0
2017-08-06T01:59:14.562Z,0
2017-08-06T02:00:16.907Z,0
2017-08-06T02:01:19.293Z,0
2017-08-06T02:02:21.764Z,0
2017-08-06T02:03:36.201Z,0
2017-08-06T02:04:38.522Z,0
2017-08-06T02:05:40.807Z,0
2017-08-06T02:06:43.088Z,0
2017-08-06T02:07:45.412Z,0
2017-08-06T02:08:47.749Z,0
2017-08-06T02:09:50.096Z,0
2017-08-06T02:10:52.493Z,0
2017-08-06T02:11:55.012Z,0
2017-08-06T02:13:09.495Z,0
2017-08-06T02:14:12.203Z,0
2017-08-06T02:15:14.542Z,0
2017-08-06T02:16:16.982Z,0
2017-08-06T02:17:19.225Z,0
2017-08-06T02:18:21.569Z,0
2017-08-06T02:19:23.896Z,0
2017-08-06T02:20:26.249Z,0
2017-08-06T02:21:28.621Z,0
2017-08-06T02:22:43.341Z,0
2017-08-06T02:23:45.779Z,0
2017-08-06T02:24:48.080Z,0
2017-08-06T02:25:50.793Z,0
2017-08-06T02:26:53.037Z,0
2017-08-06T02:27:55.327Z,0
2017-08-06T02:28:57.793Z,0
2017-08-06T02:30:00.308Z,0
2017-08-06T02:31:02.656Z,0
2017-08-06T02:32:17.473Z,0
2017-08-06T02:33:19.832Z,0
2017-08-06T02:34:22.197Z,0
2017-08-06T02:35:24.516Z,0
2017-08-06T02:36:26.896Z,0
2017-08-06T02:37:29.358Z,0
2017-08-06T02:38:31.784Z,0
2017-08-06T02:39:34.111Z,0
2017-08-06T02:40:36.557Z,0
2017-08-06T02:41:51.165Z,0
2017-08-06T02:42:53.496Z,0
2017-08-06T02:43:55.992Z,0
2017-08-06T02:44:58.353Z,0
2017-08-06T02:46:00.672Z,0
2017-08-06T02:47:02.967Z,0
2017-08-06T02:48:05.347Z,0
2017-08-06T02:49:07.777Z,0
2017-08-06T02:50:10.154Z,0
2017-08-06T02:51:25.067Z,0
2017-08-06T02:52:27.430Z,0
2017-08-06T02:53:29.772Z,0
2017-08-06T02:54:32.354Z,0
2017-08-06T02:55:34.739Z,0
2017-08-06T02:56:37.063Z,0
2017-08-06T02:57:39.480Z,0
2017-08-06T02:58:41.834Z,0
2017-08-06T02:59:44.241Z,0
2017-08-06T03:00:58.943Z,0
2017-08-06T03:02:01.028Z,0
2017-08-06T03:03:03.561Z,0
2017-08-06T03:04:05.955Z,0
2017-08-06T03:05:08.286Z,0
2017-08-06T03:06:10.597Z,0
2017-08-06T03:07:13.085Z,0
2017-08-06T03:08:15.412Z,0
2017-08-06T03:09:17.794Z,0
2017-08-06T03:10:32.558Z,0
2017-08-06T03:11:34.955Z,0
2017-08-06T03:12:37.292Z,0
2017-08-06T03:13:39.387Z,0
2017-08-06T03:14:41.788Z,0
2017-08-06T03:15:44.138Z,0
2017-08-06T03:16:46.507Z,0
2017-08-06T03:17:48.927Z,0
2017-08-06T03:18:51.448Z,0
2017-08-06T03:20:06.245Z,0
2017-08-06T03:21:08.631Z,0
2017-08-06T03:22:10.741Z,0
2017-08-06T03:23:13.109Z,0
2017-08-06T03:24:15.554Z,0
2017-08-06T03:25:17.660Z,0
2017-08-06T03:26:20.015Z,0
2017-08-06T03:27:22.433Z,0
2017-08-06T03:28:24.806Z,0
2017-08-06T03:29:39.651Z,5
2017-08-06T03:30:42.088Z,5
2017-08-06T03:31:44.749Z,5
2017-08-06T03:32:47.145Z,5
2017-08-06T03:33:49.395Z,5
2017-08-06T03:34:51.878Z,5
2017-08-06T03:35:54.194Z,5
2017-08-06T03:36:56.573Z,5
2017-08-06T03:37:58.977Z,10
2017-08-06T03:39:13.687Z,10
2017-08-06T03:40:16.156Z,10
2017-08-06T03:41:18.649Z,10
2017-08-06T03:42:21.015Z,10
2017-08-06T03:43:23.329Z,15
2017-08-06T03:44:25.635Z,15
2017-08-06T03:45:28.023Z,15
2017-08-06T03:46:30.410Z,15
2017-08-06T03:47:33.077Z,15
2017-08-06T03:48:47.713Z,15
2017-08-06T03:49:50.294Z,15
2017-08-06T03:50:52.852Z,15
2017-08-06T03:51:55.268Z,15
2017-08-06T03:52:57.522Z,10
2017-08-06T03:53:59.905Z,10
2017-08-06T03:55:02.383Z,10
2017-08-06T03:56:04.750Z,10
2017-08-06T03:57:07.168Z,15
2017-08-06T03:58:21.939Z,20
2017-08-06T03:59:24.055Z,20
2017-08-06T04:00:26.464Z,15
2017-08-06T04:01:28.843Z,15
2017-08-06T04:02:31.186Z,10
2017-08-06T04:03:33.546Z,15
2017-08-06T04:04:35.887Z,10
2017-08-06T04:05:38.268Z,10
2017-08-06T04:06:40.659Z,10
2017-08-06T04:07:55.411Z,15
2017-08-06T04:08:57.767Z,15
2017-08-06T04:10:00.147Z,20
2017-08-06T04:11:02.782Z,25
2017-08-06T04:12:05.088Z,30
2017-08-06T04:13:07.452Z,30
2017-08-06T04:14:09.858Z,30
2017-08-06T04:15:12.244Z,40
2017-08-06T04:16:14.497Z,40
2017-08-06T04:17:29.171Z,40
2017-08-06T04:18:31.284Z,45
2017-08-06T04:19:33.677Z,50
2017-08-06T04:20:36.027Z,50
2017-08-06T04:21:38.401Z,50
2017-08-06T04:22:40.761Z,40
2017-08-06T04:23:43.158Z,25
2017-08-06T04:24:45.530Z,20
2017-08-06T04:25:47.934Z,20
2017-08-06T04:27:02.741Z,15
2017-08-06T04:28:05.129Z,15
2017-08-06T04:29:07.474Z,15
2017-08-06T04:30:09.861Z,15
2017-08-06T04:31:12.181Z,15
2017-08-06T04:32:14.536Z,15
2017-08-06T04:33:16.911Z,20
2017-08-06T04:34:19.271Z,25
2017-08-06T04:35:21.677Z,30
2017-08-06T04:36:36.552Z,35
2017-08-06T04:37:38.987Z,40
2017-08-06T04:38:41.461Z,45
2017-08-06T04:39:43.858Z,45
2017-08-06T04:40:46.282Z,50
2017-08-06T04:41:48.558Z,50
2017-08-06T04:42:50.923Z,45
2017-08-06T04:43:53.288Z,45
2017-08-06T04:44:55.667Z,45
2017-08-06T04:46:10.393Z,50
2017-08-06T04:47:12.779Z,55
2017-08-06T04:48:15.249Z,65
2017-08-06T04:49:17.567Z,65
2017-08-06T04:50:19.908Z,70
2017-08-06T04:51:22.250Z,80
2017-08-06T04:52:24.651Z,85
2017-08-06T04:53:27.106Z,80
2017-08-06T04:54:29.485Z,75
2017-08-06T04:55:44.183Z,70
2017-08-06T04:56:46.637Z,75
2017-08-06T04:57:48.722Z,85
2017-08-06T04:58:51.297Z,80
2017-08-06T04:59:53.697Z,75
2017-08-06T05:00:55.988Z,70
2017-08-06T05:01:58.401Z,75
2017-08-06T05:03:00.753Z,80
2017-08-06T05:04:03.204Z,105
2017-08-06T05:05:17.843Z,105
2017-08-06T05:06:20.214Z,105
2017-08-06T05:07:22.341Z,120
2017-08-06T05:08:24.750Z,125
2017-08-06T05:09:27.129Z,130
2017-08-06T05:10:29.179Z,135
2017-08-06T05:11:31.520Z,145
2017-08-06T05:12:33.947Z,140
2017-08-06T05:13:36.300Z,150
2017-08-06T05:14:51.099Z,150
2017-08-06T05:15:53.457Z,145
2017-08-06T05:16:55.568Z,150
2017-08-06T05:17:57.994Z,155
2017-08-06T05:19:00.271Z,170
2017-08-06T05:20:02.753Z,170
2017-08-06T05:21:05.398Z,165
2017-08-06T05:22:07.749Z,150
2017-08-06T05:23:10.176Z,150
2017-08-06T05:24:24.916Z,150
2017-08-06T05:25:27.352Z,150
2017-08-06T05:26:29.696Z,145
2017-08-06T05:27:32.162Z,145
2017-08-06T05:28:34.485Z,140
2017-08-06T05:29:36.852Z,140
2017-08-06T05:30:39.364Z,135
2017-08-06T05:31:41.757Z,140
2017-08-06T05:32:44.175Z,140
2017-08-06T05:33:58.890Z,140
2017-08-06T05:35:01.284Z,140
2017-08-06T05:36:03.675Z,140
2017-08-06T05:37:06.081Z,140
2017-08-06T05:38:08.445Z,140
2017-08-06T05:39:10.911Z,140
2017-08-06T05:40:13.377Z,140
2017-08-06T05:41:15.730Z,140
2017-08-06T05:42:18.168Z,145
2017-08-06T05:43:32.809Z,140
2017-08-06T05:44:35.249Z,145
2017-08-06T05:45:37.577Z,140
2017-08-06T05:46:39.941Z,140
2017-08-06T05:47:42.204Z,140
2017-08-06T05:48:44.525Z,140
2017-08-06T05:49:46.904Z,145
2017-08-06T05:50:49.523Z,145
2017-08-06T05:51:51.941Z,145
2017-08-06T05:53:06.787Z,145
2017-08-06T05:54:09.137Z,150
2017-08-06T05:55:11.686Z,145
2017-08-06T05:56:14.127Z,145
2017-08-06T05:57:16.425Z,145
2017-08-06T05:58:18.467Z,145
2017-08-06T05:59:20.930Z,150
2017-08-06T06:00:23.307Z,145
2017-08-06T06:01:25.765Z,155
2017-08-06T06:02:40.561Z,150
2017-08-06T06:03:42.946Z,150
2017-08-06T06:04:45.259Z,155
2017-08-06T06:05:47.615Z,160
2017-08-06T06:06:50.086Z,165
2017-08-06T06:07:52.389Z,165
2017-08-06T06:08:54.785Z,165
2017-08-06T06:09:57.133Z,155
2017-08-06T06:10:59.532Z,150
2017-08-06T06:12:14.970Z,160
2017-08-06T06:13:17.347Z,165
2017-08-06T06:14:19.782Z,160
2017-08-06T06:15:22.255Z,155
2017-08-06T06:16:24.853Z,155
2017-08-06T06:17:26.901Z,155
2017-08-06T06:18:29.459Z,155
2017-08-06T06:19:31.859Z,155
2017-08-06T06:20:34.204Z,155
2017-08-06T06:21:48.989Z,160
2017-08-06T06:22:51.344Z,165
2017-08-06T06:23:53.735Z,165
2017-08-06T06:24:56.137Z,160
2017-08-06T06:25:58.584Z,160
2017-08-06T06:27:00.865Z,165
2017-08-06T06:28:03.218Z,170
2017-08-06T06:29:05.714Z,180
2017-08-06T06:30:08.069Z,190
2017-08-06T06:31:22.767Z,195
2017-08-06T06:32:25.349Z,190
2017-08-06T06:33:27.767Z,195
2017-08-06T06:34:30.082Z,200
2017-08-06T06:35:32.373Z,195
2017-08-06T06:36:34.424Z,180
2017-08-06T06:37:36.831Z,180
2017-08-06T06:38:38.964Z,175
2017-08-06T06:39:41.420Z,175
2017-08-06T06:40:56.157Z,180
2017-08-06T06:41:58.671Z,175
2017-08-06T06:43:01.174Z,170
2017-08-06T06:44:03.564Z,170
2017-08-06T06:45:05.942Z,170
2017-08-06T06:46:08.296Z,180
2017-08-06T06:47:10.702Z,190
2017-08-06T06:48:13.157Z,190
2017-08-06T06:49:15.589Z,195
2017-08-06T06:50:30.269Z,195
2017-08-06T06:51:32.632Z,190
2017-08-06T06:52:35.012Z,190
2017-08-06T06:53:37.616Z,200
2017-08-06T06:54:39.907Z,215
2017-08-06T06:55:42.231Z,220
2017-08-06T06:56:44.594Z,210
2017-08-06T06:57:47.045Z,200
2017-08-06T06:58:49.392Z,205
2017-08-06T07:00:04.054Z,220
2017-08-06T07:01:06.443Z,225
2017-08-06T07:02:08.545Z,205
2017-08-06T07:03:10.977Z,180
2017-08-06T07:04:13.312Z,175
2017-08-06T07:05:15.223Z,170
2017-08-06T07:06:17.052Z,165
2017-08-06T07:07:18.880Z,170
2017-08-06T07:08:20.710Z,165
2017-08-06T07:09:34.877Z,170
2017-08-06T07:10:36.768Z,170
2017-08-06T07:11:38.658Z,170
2017-08-06T07:12:40.552Z,175
2017-08-06T07:13:42.383Z,175
2017-08-06T07:14:44.214Z,175
2017-08-06T07:15:46.105Z,175
2017-08-06T07:16:48.005Z,175
2017-08-06T07:17:49.902Z,175
2017-08-06T07:19:04.066Z,170
2017-08-06T07:20:05.967Z,185
2017-08-06T07:21:07.850Z,195
2017-08-06T07:22:09.745Z,210
2017-08-06T07:23:11.575Z,220
2017-08-06T07:24:13.408Z,225
2017-08-06T07:25:15.302Z,230
2017-08-06T07:26:17.192Z,225
2017-08-06T07:27:19.087Z,230
2017-08-06T07:28:33.256Z,220
2017-08-06T07:29:35.153Z,235
2017-08-06T07:30:37.042Z,230
2017-08-06T07:31:38.935Z,220
2017-08-06T07:32:40.770Z,215
2017-08-06T07:33:42.602Z,200
2017-08-06T07:34:44.494Z,215
2017-08-06T07:35:46.408Z,230
2017-08-06T07:36:48.277Z,220
2017-08-06T07:38:02.446Z,210
2017-08-06T07:39:04.336Z,195
2017-08-06T07:40:06.227Z,220
2017-08-06T07:41:08.120Z,230
2017-08-06T07:42:09.954Z,235
2017-08-06T07:43:11.805Z,235
2017-08-06T07:44:13.701Z,225
2017-08-06T07:45:15.585Z,220
2017-08-06T07:46:17.476Z,225
2017-08-06T07:47:31.768Z,235
2017-08-06T07:48:33.655Z,220
2017-08-06T07:49:35.556Z,235
2017-08-06T07:50:37.452Z,240
2017-08-06T07:51:39.289Z,260
2017-08-06T07:52:41.120Z,275
2017-08-06T07:53:43.010Z,255
2017-08-06T07:54:44.900Z,250
2017-08-06T07:55:46.790Z,245
2017-08-06T07:57:00.970Z,240
2017-08-06T07:58:02.864Z,240
2017-08-06T07:59:04.755Z,240
2017-08-06T08:00:06.651Z,250
2017-08-06T08:01:08.485Z,260
2017-08-06T08:02:10.321Z,250
2017-08-06T08:03:12.209Z,235
2017-08-06T08:04:14.101Z,225
2017-08-06T08:05:15.989Z,220
2017-08-06T08:06:30.162Z,230
2017-08-06T08:07:32.051Z,230
2017-08-06T08:08:33.942Z,225
2017-08-06T08:09:35.833Z,215
2017-08-06T08:10:37.666Z,215
2017-08-06T08:11:39.504Z,230
2017-08-06T08:12:41.391Z,230
2017-08-06T08:13:43.282Z,220
2017-08-06T08:14:45.176Z,230
2017-08-06T08:15:59.345Z,235
2017-08-06T08:17:01.241Z,255
2017-08-06T08:18:03.130Z,240
2017-08-06T08:19:05.026Z,240
2017-08-06T08:20:06.861Z,240
2017-08-06T08:21:08.692Z,235
2017-08-06T08:22:10.588Z,225
2017-08-06T08:23:12.480Z,215
2017-08-06T08:24:14.368Z,225
2017-08-06T08:25:28.539Z,210
2017-08-06T08:26:30.427Z,195
2017-08-06T08:27:32.325Z,200
2017-08-06T08:28:34.213Z,220
2017-08-06T08:29:36.051Z,235
2017-08-06T08:30:37.884Z,265
2017-08-06T08:31:39.779Z,275
2017-08-06T08:32:41.676Z,275
2017-08-06T08:33:43.573Z,265
2017-08-06T08:34:57.743Z,245
2017-08-06T08:35:59.632Z,235
2017-08-06T08:37:01.525Z,230
2017-08-06T08:38:03.421Z,230
2017-08-06T08:39:05.257Z,225
2017-08-06T08:40:07.089Z,230
2017-08-06T08:41:08.983Z,245
2017-08-06T08:42:10.889Z,260
2017-08-06T08:43:12.782Z,260
2017-08-06T08:44:26.951Z,255
2017-08-06T08:45:28.844Z,280
2017-08-06T08:46:30.735Z,285
2017-08-06T08:47:32.628Z,265
2017-08-06T08:48:34.466Z,265
2017-08-06T08:49:36.298Z,265
2017-08-06T08:50:38.153Z,260
2017-08-06T08:51:39.984Z,250
2017-08-06T08:52:41.815Z,255
2017-08-06T08:53:56.022Z,250
2017-08-06T08:54:57.913Z,260
2017-08-06T08:55:59.807Z,270
2017-08-06T08:57:01.702Z,280
2017-08-06T08:58:03.546Z,295
2017-08-06T08:59:05.374Z,295
2017-08-06T09:00:07.263Z,300
2017-08-06T09:01:09.154Z,290
2017-08-06T09:02:11.045Z,270
2017-08-06T09:03:25.216Z,245
2017-08-06T09:04:27.109Z,230
2017-08-06T09:05:29.017Z,225
2017-08-06T09:06:30.904Z,220
2017-08-06T09:07:32.740Z,225
2017-08-06T09:08:34.585Z,245
2017-08-06T09:09:36.468Z,270
2017-08-06T09:10:38.366Z,300
2017-08-06T09:11:40.255Z,305
2017-08-06T09:12:54.436Z,325
2017-08-06T09:13:56.328Z,325
2017-08-06T09:14:58.221Z,330
2017-08-06T09:16:00.115Z,330
2017-08-06T09:17:01.951Z,335
2017-08-06T09:18:03.786Z,330
2017-08-06T09:19:05.682Z,330
2017-08-06T09:20:07.576Z,335
2017-08-06T09:21:09.467Z,345
2017-08-06T09:22:23.639Z,350
2017-08-06T09:23:25.530Z,345
2017-08-06T09:24:27.426Z,330
2017-08-06T09:25:29.329Z,315
2017-08-06T09:26:31.161Z,290
2017-08-06T09:27:32.995Z,265
2017-08-06T09:28:34.891Z,255
2017-08-06T09:29:36.780Z,250
2017-08-06T09:30:38.671Z,260
2017-08-06T09:31:52.839Z,260
2017-08-06T09:32:54.730Z,255
2017-08-06T09:33:56.630Z,255
2017-08-06T09:34:58.520Z,260
2017-08-06T09:36:00.357Z,245
2017-08-06T09:37:02.189Z,235
2017-08-06T09:38:04.086Z,235
2017-08-06T09:39:05.980Z,245
2017-08-06T09:40:07.876Z,250
2017-08-06T09:41:22.041Z,255
2017-08-06T09:42:23.938Z,260
2017-08-06T09:43:25.829Z,265
2017-08-06T09:44:27.729Z,275
2017-08-06T09:45:29.564Z,280
2017-08-06T09:46:31.398Z,295
2017-08-06T09:47:33.294Z,285
2017-08-06T09:48:35.192Z,275
2017-08-06T09:49:37.075Z,250
2017-08-06T09:50:51.247Z,255
2017-08-06T09:51:53.139Z,255
2017-08-06T09:52:55.033Z,255
2017-08-06T09:53:56.930Z,250
2017-08-06T09:54:58.767Z,240
2017-08-06T09:56:00.605Z,245
2017-08-06T09:57:02.495Z,235
2017-08-06T09:58:04.386Z,215
2017-08-06T09:59:06.282Z,200
2017-08-06T10:00:20.456Z,200
2017-08-06T10:01:22.352Z,210
2017-08-06T10:02:24.250Z,235
2017-08-06T10:03:26.139Z,225
2017-08-06T10:04:27.978Z,225
2017-08-06T10:05:29.810Z,230
2017-08-06T10:06:31.702Z,225
2017-08-06T10:07:33.592Z,225
2017-08-06T10:08:35.483Z,230
2017-08-06T10:09:49.655Z,220
2017-08-06T10:10:51.543Z,200
2017-08-06T10:11:53.436Z,210
2017-08-06T10:12:55.337Z,210
2017-08-06T10:13:57.164Z,220
2017-08-06T10:14:58.999Z,235
2017-08-06T10:16:00.903Z,230
2017-08-06T10:17:02.788Z,250
2017-08-06T10:18:04.700Z,255
2017-08-06T10:19:18.886Z,255
2017-08-06T10:20:20.787Z,260
2017-08-06T10:21:22.666Z,255
2017-08-06T10:22:24.583Z,240
2017-08-06T10:23:26.399Z,225
2017-08-06T10:24:28.230Z,225
2017-08-06T10:25:30.128Z,225
2017-08-06T10:26:32.015Z,235
2017-08-06T10:27:33.913Z,240
2017-08-06T10:28:48.085Z,255
2017-08-06T10:29:49.975Z,275
2017-08-06T10:30:51.869Z,300
2017-08-06T10:31:53.764Z,325
2017-08-06T10:32:55.612Z,335
2017-08-06T10:33:57.438Z,345
2017-08-06T10:34:59.333Z,335
2017-08-06T10:36:01.237Z,330
2017-08-06T10:37:03.127Z,330
2017-08-06T10:38:17.299Z,315
2017-08-06T10:39:19.190Z,310
2017-08-06T10:40:21.088Z,305
2017-08-06T10:41:22.982Z,290
2017-08-06T10:42:24.820Z,290
2017-08-06T10:43:26.654Z,290
2017-08-06T10:44:28.547Z,300
2017-08-06T10:45:30.438Z,315
2017-08-06T10:46:32.338Z,325
2017-08-06T10:47:46.509Z,315
2017-08-06T10:48:48.399Z,320
2017-08-06T10:49:50.297Z,345
2017-08-06T10:50:52.198Z,340
2017-08-06T10:51:54.036Z,305
2017-08-06T10:52:55.873Z,280
2017-08-06T10:53:57.763Z,280
2017-08-06T10:54:59.660Z,295
2017-08-06T10:56:01.554Z,295
2017-08-06T10:57:15.727Z,270
2017-08-06T10:58:17.617Z,275
2017-08-06T10:59:19.515Z,275
2017-08-06T11:00:21.410Z,245
2017-08-06T11:01:23.257Z,265
2017-08-06T11:02:25.083Z,270
2017-08-06T11:03:26.984Z,255
2017-08-06T11:04:28.873Z,280
2017-08-06T11:05:30.766Z,290
2017-08-06T11:06:44.957Z,290
2017-08-06T11:07:46.840Z,280
2017-08-06T11:08:48.740Z,250
2017-08-06T11:09:50.637Z,240
2017-08-06T11:10:52.471Z,260
2017-08-06T11:11:54.305Z,280
2017-08-06T11:12:56.202Z,295
2017-08-06T11:13:58.096Z,325
2017-08-06T11:14:59.991Z,320
2017-08-06T11:16:14.168Z,300
2017-08-06T11:17:16.062Z,290
2017-08-06T11:18:17.956Z,260
2017-08-06T11:19:19.852Z,250
2017-08-06T11:20:21.690Z,255
2017-08-06T11:21:23.522Z,290
2017-08-06T11:22:25.416Z,330
2017-08-06T11:23:27.328Z,350
2017-08-06T11:24:29.239Z,345
2017-08-06T11:25:43.398Z,350
2017-08-06T11:26:45.441Z,335
2017-08-06T11:27:47.346Z,340
2017-08-06T11:28:49.257Z,345
2017-08-06T11:29:51.095Z,335
2017-08-06T11:30:52.944Z,325
2017-08-06T11:31:54.830Z,325
2017-08-06T11:32:57.123Z,310
2017-08-06T11:33:59.081Z,305
2017-08-06T11:35:13.409Z,335
2017-08-06T11:36:15.299Z,345
2017-08-06T11:37:17.210Z,335
2017-08-06T11:38:19.099Z,320
2017-08-06T11:39:20.933Z,310
2017-08-06T11:40:22.767Z,295
2017-08-06T11:41:24.698Z,290
2017-08-06T11:42:26.605Z,290
2017-08-06T11:43:28.541Z,300
2017-08-06T11:44:42.726Z,305
2017-08-06T11:45:44.619Z,300
2017-08-06T11:46:46.511Z,305
2017-08-06T11:47:48.786Z,285
2017-08-06T11:48:50.683Z,270
2017-08-06T11:49:52.499Z,260
2017-08-06T11:50:54.394Z,265
2017-08-06T11:51:56.285Z,265
2017-08-06T11:52:58.180Z,265
2017-08-06T11:54:12.533Z,250
2017-08-06T11:55:15.209Z,245
2017-08-06T11:56:17.695Z,255
2017-08-06T11:57:20.124Z,260
2017-08-06T11:58:22.460Z,290
2017-08-06T11:59:24.754Z,305
2017-08-06T12:00:27.042Z,310
2017-08-06T12:01:28.916Z,320
2017-08-06T12:02:30.840Z,340
2017-08-06T12:03:45.374Z,335
2017-08-06T12:04:47.287Z,325
2017-08-06T12:05:49.600Z,315
2017-08-06T12:06:51.473Z,310
2017-08-06T12:07:53.314Z,290
2017-08-06T12:08:55.144Z,270
2017-08-06T12:09:57.099Z,270
2017-08-06T12:10:59.347Z,270
2017-08-06T12:12:01.337Z,270
2017-08-06T12:13:15.604Z,280
2017-08-06T12:14:17.601Z,290
2017-08-06T12:15:19.492Z,270
2017-08-06T12:16:22.066Z,260
2017-08-06T12:17:24.412Z,250
2017-08-06T12:18:26.537Z,245
2017-08-06T12:19:28.919Z,245
2017-08-06T12:20:31.372Z,260
2017-08-06T12:21:34.154Z,270
2017-08-06T12:22:48.796Z,275
2017-08-06T12:23:51.205Z,290
2017-08-06T12:24:53.631Z,285
2017-08-06T12:25:56.160Z,280
2017-08-06T12:26:58.499Z,275
2017-08-06T12:28:00.798Z,280
2017-08-06T12:29:03.313Z,300
2017-08-06T12:30:05.805Z,310
2017-08-06T12:31:08.213Z,310
2017-08-06T12:32:22.468Z,315
2017-08-06T12:33:24.819Z,320
2017-08-06T12:34:27.181Z,315
2017-08-06T12:35:29.587Z,305
2017-08-06T12:36:31.644Z,295
2017-08-06T12:37:34.002Z,295
2017-08-06T12:38:36.333Z,290
2017-08-06T12:39:38.295Z,295
2017-08-06T12:40:40.605Z,290
2017-08-06T12:41:55.070Z,300
2017-08-06T12:42:57.461Z,330
2017-08-06T12:43:59.881Z,365
2017-08-06T12:45:02.272Z,390
2017-08-06T12:46:04.640Z,395
2017-08-06T12:47:07.033Z,390
2017-08-06T12:48:09.386Z,375
2017-08-06T12:49:11.795Z,360
2017-08-06T12:50:13.845Z,355
2017-08-06T12:51:28.703Z,350
2017-08-06T12:52:30.910Z,330
2017-08-06T12:53:33.395Z,325
2017-08-06T12:54:35.688Z,330
2017-08-06T12:55:37.986Z,325
2017-08-06T12:56:40.358Z,330
2017-08-06T12:57:42.371Z,315
2017-08-06T12:58:44.721Z,310
2017-08-06T12:59:46.773Z,320
2017-08-06T13:01:01.108Z,340
2017-08-06T13:02:03.396Z,360
2017-08-06T13:03:06.178Z,375
2017-08-06T13:04:08.604Z,370
2017-08-06T13:05:11.092Z,345
2017-08-06T13:06:13.600Z,325
2017-08-06T13:07:15.850Z,315
2017-08-06T13:08:18.173Z,320
2017-08-06T13:09:20.553Z,325
2017-08-06T13:10:35.383Z,320
2017-08-06T13:11:37.616Z,305
2017-08-06T13:12:40.072Z,285
2017-08-06T13:13:42.379Z,280
2017-08-06T13:14:44.730Z,280
2017-08-06T13:15:47.130Z,285
2017-08-06T13:16:49.449Z,290
2017-08-06T13:17:51.953Z,285
2017-08-06T13:18:54.289Z,280
2017-08-06T13:20:08.985Z,270
2017-08-06T13:21:11.380Z,265
2017-08-06T13:22:13.838Z,265
2017-08-06T13:23:16.502Z,270
2017-08-06T13:24:18.794Z,275
2017-08-06T13:25:21.140Z,285
2017-08-06T13:26:23.173Z,280
2017-08-06T13:27:25.065Z,275
2017-08-06T13:28:27.521Z,275
2017-08-06T13:29:42.160Z,275
2017-08-06T13:30:44.629Z,285
2017-08-06T13:31:47.147Z,290
2017-08-06T13:32:49.504Z,300
2017-08-06T13:33:51.892Z,310
2017-08-06T13:34:53.793Z,325
2017-08-06T13:35:55.695Z,340
2017-08-06T13:36:57.986Z,340
2017-08-06T13:38:00.408Z,340
2017-08-06T13:39:15.227Z,340
2017-08-06T13:40:17.679Z,340
2017-08-06T13:41:19.994Z,345
2017-08-06T13:42:22.427Z,345
2017-08-06T13:43:24.377Z,345
2017-08-06T13:44:26.641Z,345
2017-08-06T13:45:28.575Z,340
2017-08-06T13:46:30.586Z,335
2017-08-06T13:47:32.600Z,335
2017-08-06T13:48:46.881Z,330
2017-08-06T13:49:48.837Z,330
2017-08-06T13:50:50.735Z,340
2017-08-06T13:51:53.004Z,340
2017-08-06T13:52:55.309Z,345
2017-08-06T13:53:57.482Z,345
2017-08-06T13:54:59.468Z,345
2017-08-06T13:56:01.855Z,345
2017-08-06T13:57:04.292Z,345
2017-08-06T13:58:18.496Z,345
2017-08-06T13:59:20.391Z,345
2017-08-06T14:00:22.284Z,345
2017-08-06T14:01:24.235Z,345
2017-08-06T14:02:26.102Z,340
2017-08-06T14:03:27.995Z,335
2017-08-06T14:04:30.395Z,330
2017-08-06T14:05:32.892Z,315
2017-08-06T14:06:35.347Z,305
2017-08-06T14:07:49.875Z,290
2017-08-06T14:08:51.769Z,290
2017-08-06T14:09:53.666Z,285
2017-08-06T14:10:55.561Z,285
2017-08-06T14:11:57.400Z,280
2017-08-06T14:12:59.236Z,285
2017-08-06T14:14:01.128Z,295
2017-08-06T14:15:03.022Z,295
2017-08-06T14:16:05.598Z,300
2017-08-06T14:17:20.506Z,300
2017-08-06T14:18:22.763Z,300
2017-08-06T14:19:25.177Z,295
2017-08-06T14:20:27.528Z,300
2017-08-06T14:21:29.978Z,300
2017-08-06T14:22:32.976Z,305
2017-08-06T14:23:35.587Z,305
2017-08-06T14:24:37.725Z,300
2017-08-06T14:25:39.619Z,300
2017-08-06T14:26:54.446Z,305
2017-08-06T14:27:57.220Z,305
2017-08-06T14:28:59.600Z,300
2017-08-06T14:30:02.642Z,305
2017-08-06T14:31:04.987Z,305
2017-08-06T14:32:07.291Z,305
2017-08-06T14:33:09.467Z,305
2017-08-06T14:34:12.154Z,305
2017-08-06T14:35:14.577Z,305
2017-08-06T14:36:29.341Z,305
2017-08-06T14:37:31.776Z,300
2017-08-06T14:38:34.130Z,295
2017-08-06T14:39:36.555Z,290
2017-08-06T14:40:38.888Z,285
2017-08-06T14:41:41.337Z,285
2017-08-06T14:42:43.851Z,280
2017-08-06T14:43:46.331Z,275
2017-08-06T14:44:48.885Z,270
2017-08-06T14:46:03.724Z,270
2017-08-06T14:47:06.131Z,270
2017-08-06T14:48:08.541Z,270
2017-08-06T14:49:10.858Z,275
2017-08-06T14:50:13.328Z,275
2017-08-06T14:51:15.697Z,275
2017-08-06T14:52:17.912Z,280